createdAt,value
2022-10-30T00:03:43.091Z,8.87
2022-10-30T00:08:36.635Z,10.10
2022-10-30T00:13:31.337Z,10.27
2022-10-30T00:18:24.533Z,8.63
2022-10-30T00:23:18.160Z,8.90
2022-10-30T00:28:11.437Z,8.80
2022-10-30T00:33:06.754Z,8.70
2022-10-30T00:38:01.598Z,8.40
2022-10-30T00:42:55.311Z,9.90
2022-10-30T00:47:55.060Z,11.27
2022-10-30T00:52:58.370Z,9.63
2022-10-30T00:57:53.202Z,8.83
2022-10-30T01:02:47.051Z,9.07
2022-10-30T01:07:40.383Z,9.40
2022-10-30T01:12:35.154Z,10.50
2022-10-30T01:17:58.748Z,13.00
2022-10-30T01:23:07.276Z,14.03
2022-10-30T01:28:21.032Z,11.70
2022-10-30T01:33:32.599Z,10.90
2022-10-30T01:38:33.088Z,13.93
2022-10-30T01:43:27.728Z,10.37
2022-10-30T01:48:53.704Z,9.43
2022-10-30T01:54:00.110Z,8.33
2022-10-30T01:59:10.748Z,9.40
2022-10-30T02:04:05.167Z,10.00
2022-10-30T02:09:00.888Z,9.07
2022-10-30T02:13:59.851Z,9.50
2022-10-30T02:18:53.069Z,10.57
2022-10-30T02:23:47.696Z,8.50
2022-10-30T02:28:40.951Z,8.83
2022-10-30T02:33:34.231Z,9.17
2022-10-30T02:38:27.450Z,9.30
2022-10-30T02:43:22.079Z,10.00
2022-10-30T02:48:15.357Z,10.20
2022-10-30T02:53:08.572Z,11.90
2022-10-30T02:58:01.779Z,9.57
2022-10-30T03:02:58.213Z,8.10
2022-10-30T03:07:51.533Z,8.00
2022-10-30T03:12:44.960Z,7.30
2022-10-30T03:17:38.403Z,7.87
2022-10-30T03:22:33.075Z,8.20
2022-10-30T03:27:26.254Z,7.50
2022-10-30T03:32:19.732Z,7.13
2022-10-30T03:37:13.019Z,8.13
2022-10-30T03:42:07.888Z,7.80
2022-10-30T03:47:01.188Z,8.23
2022-10-30T03:51:54.464Z,8.87
2022-10-30T03:56:47.747Z,8.60
2022-10-30T04:01:42.476Z,9.13
2022-10-30T04:06:35.764Z,8.00
2022-10-30T04:11:29.009Z,8.90
2022-10-30T04:16:22.218Z,8.50
2022-10-30T04:21:16.812Z,8.20
2022-10-30T04:26:10.085Z,9.03
2022-10-30T04:31:03.311Z,8.30
2022-10-30T04:35:57.146Z,8.93
2022-10-30T04:40:51.783Z,9.47
2022-10-30T04:45:45.318Z,9.00
2022-10-30T04:50:38.951Z,9.50
2022-10-30T04:55:33.006Z,9.63
2022-10-30T05:00:28.709Z,10.10
2022-10-30T05:05:22.824Z,10.53
2022-10-30T05:10:19.253Z,8.20
2022-10-30T05:15:18.932Z,8.27
2022-10-30T05:20:16.409Z,8.43
2022-10-30T05:25:14.407Z,8.27
2022-10-30T05:30:11.824Z,6.87
2022-10-30T05:35:05.975Z,6.40
2022-10-30T05:40:00.613Z,7.17
2022-10-30T05:45:02.295Z,7.87
2022-10-30T05:49:56.015Z,8.50
2022-10-30T05:54:49.258Z,9.10
2022-10-30T05:59:43.901Z,7.13
2022-10-30T06:04:37.141Z,6.87
2022-10-30T06:09:30.439Z,6.27
2022-10-30T06:14:23.665Z,7.83
2022-10-30T06:19:18.806Z,6.57
2022-10-30T06:24:14.874Z,7.83
2022-10-30T06:29:08.358Z,7.80
2022-10-30T06:34:01.838Z,6.60
2022-10-30T06:38:56.563Z,6.70
2022-10-30T06:43:49.881Z,6.50
2022-10-30T06:48:43.239Z,8.73
2022-10-30T06:53:36.532Z,8.90
2022-10-30T06:58:31.182Z,9.40
2022-10-30T07:03:24.437Z,6.90
2022-10-30T07:08:17.698Z,7.87
2022-10-30T07:13:11.022Z,6.73
2022-10-30T07:18:06.365Z,8.33
2022-10-30T07:22:59.817Z,7.63
2022-10-30T07:27:55.427Z,8.03
2022-10-30T07:32:58.167Z,8.03
2022-10-30T07:37:53.040Z,8.70
2022-10-30T07:42:46.241Z,6.73
2022-10-30T07:47:41.566Z,6.27
2022-10-30T07:52:34.902Z,7.57
2022-10-30T07:57:32.639Z,8.47
2022-10-30T08:02:26.012Z,8.73
2022-10-30T08:07:20.731Z,8.33
2022-10-30T08:12:13.949Z,8.03
2022-10-30T08:17:10.665Z,7.40
2022-10-30T08:22:03.881Z,8.40
2022-10-30T08:26:57.127Z,10.90
2022-10-30T08:31:50.705Z,9.40
2022-10-30T08:36:48.492Z,7.37
2022-10-30T08:41:42.749Z,7.97
2022-10-30T08:46:36.039Z,8.83
2022-10-30T08:51:29.314Z,9.10
2022-10-30T08:56:23.940Z,9.80
2022-10-30T09:01:17.309Z,7.93
2022-10-30T09:06:10.654Z,10.70
2022-10-30T09:11:04.316Z,8.80
2022-10-30T09:16:03.802Z,11.77
2022-10-30T09:20:57.102Z,11.93
2022-10-30T09:25:50.360Z,12.10
2022-10-30T09:30:43.590Z,11.03
2022-10-30T09:35:38.249Z,10.17
2022-10-30T09:40:51.680Z,12.30
2022-10-30T09:46:12.869Z,11.53
2022-10-30T09:51:26.599Z,13.03
2022-10-30T09:56:28.626Z,10.57
2022-10-30T10:01:30.134Z,12.43
2022-10-30T10:06:28.370Z,11.70
2022-10-30T10:11:26.781Z,14.27
2022-10-30T10:16:22.329Z,14.13
2022-10-30T10:21:28.361Z,14.07
2022-10-30T10:26:32.062Z,14.57
2022-10-30T10:31:40.985Z,15.23
2022-10-30T10:36:52.474Z,16.73
2022-10-30T10:42:14.450Z,17.53
2022-10-30T10:47:36.145Z,18.77
2022-10-30T10:52:40.463Z,18.37
2022-10-30T10:57:38.482Z,18.40
2022-10-30T11:02:42.249Z,19.52
2022-10-30T11:07:47.487Z,21.33
2022-10-30T11:12:41.090Z,20.00
2022-10-30T11:17:46.605Z,20.40
2022-10-30T11:22:51.331Z,21.60
2022-10-30T11:27:47.710Z,23.20
2022-10-30T11:32:40.975Z,23.52
2022-10-30T11:37:36.988Z,22.47
2022-10-30T11:42:32.160Z,21.77
2022-10-30T11:52:41.826Z,23.33
2022-10-30T11:57:42.997Z,24.30
2022-10-30T12:02:44.833Z,26.25
2022-10-30T12:07:38.118Z,25.92
2022-10-30T12:12:40.735Z,23.10
2022-10-30T12:17:34.028Z,24.05
2022-10-30T12:22:32.443Z,24.33
2022-10-30T12:27:27.430Z,22.88
2022-10-30T12:32:27.515Z,22.40
2022-10-30T12:37:29.485Z,23.40
2022-10-30T12:42:24.978Z,22.15
2022-10-30T12:47:31.083Z,19.92
2022-10-30T12:52:37.014Z,20.00
2022-10-30T12:57:37.193Z,20.02
2022-10-30T13:02:49.158Z,21.75
2022-10-30T13:07:52.896Z,19.38
2022-10-30T13:12:52.450Z,20.08
2022-10-30T13:17:47.062Z,19.67
2022-10-30T13:22:52.036Z,20.70
2022-10-30T13:27:53.423Z,19.40
2022-10-30T13:33:08.534Z,20.90
2022-10-30T13:38:18.093Z,19.88
2022-10-30T13:43:28.273Z,19.33
2022-10-30T13:48:43.337Z,15.10
2022-10-30T13:53:42.721Z,13.80
2022-10-30T13:58:43.554Z,12.23
2022-10-30T14:03:53.505Z,11.13
2022-10-30T14:09:04.678Z,10.70
2022-10-30T14:14:04.672Z,11.10
2022-10-30T14:19:04.053Z,11.68
2022-10-30T14:24:05.788Z,11.70
2022-10-30T14:28:59.038Z,11.45
2022-10-30T14:33:54.703Z,11.57
2022-10-30T14:39:02.271Z,11.63
2022-10-30T14:44:18.677Z,11.10
2022-10-30T14:49:36.619Z,13.40
2022-10-30T14:54:44.717Z,13.95
2022-10-30T14:59:39.492Z,14.07
2022-10-30T15:04:58.224Z,14.88
2022-10-30T15:10:13.183Z,14.82
2022-10-30T15:15:13.715Z,14.98
2022-10-30T15:20:16.995Z,16.25
2022-10-30T15:25:20.498Z,15.52
2022-10-30T15:30:20.988Z,14.65
2022-10-30T15:35:19.231Z,16.55
2022-10-30T15:40:22.114Z,15.38
2022-10-30T15:45:21.456Z,17.15
2022-10-30T15:50:16.923Z,19.67
2022-10-30T15:55:16.245Z,21.77
2022-10-30T16:00:22.897Z,22.90
2022-10-30T16:05:23.971Z,19.05
2022-10-30T16:10:19.345Z,17.48
2022-10-30T16:15:29.079Z,18.02
2022-10-30T16:20:22.652Z,19.35
2022-10-30T16:25:18.709Z,20.48
2022-10-30T16:30:16.428Z,19.95
2022-10-30T16:35:13.214Z,19.98
2022-10-30T16:40:14.713Z,17.42
2022-10-30T16:45:49.782Z,20.85
2022-10-30T16:50:44.664Z,18.30
2022-10-30T16:55:39.111Z,22.08
2022-10-30T17:00:36.871Z,21.67
2022-10-30T17:05:34.311Z,22.55
2022-10-30T17:10:36.779Z,20.33
2022-10-30T17:15:50.938Z,20.35
2022-10-30T17:20:44.748Z,17.10
2022-10-30T17:25:41.646Z,19.60
2022-10-30T17:30:40.856Z,18.38
2022-10-30T17:35:35.901Z,18.90
2022-10-30T17:40:29.448Z,17.55
2022-10-30T17:45:24.084Z,18.08
2022-10-30T17:50:17.480Z,19.58
2022-10-30T17:55:26.675Z,18.20
2022-10-30T18:00:20.201Z,21.35
2022-10-30T18:05:19.931Z,21.95
2022-10-30T18:10:14.303Z,18.40
2022-10-30T18:15:46.434Z,22.65
2022-10-30T18:20:41.111Z,20.85
2022-10-30T18:25:39.909Z,19.77
2022-10-30T18:30:35.502Z,20.48
2022-10-30T18:35:34.009Z,17.70
2022-10-30T18:40:29.155Z,17.23
2022-10-30T18:45:27.021Z,16.08
2022-10-30T18:50:23.395Z,18.02
2022-10-30T18:55:24.929Z,17.60
2022-10-30T19:00:39.805Z,17.42
2022-10-30T19:05:49.107Z,13.67
2022-10-30T19:10:46.859Z,13.98
2022-10-30T19:16:00.484Z,14.13
2022-10-30T19:21:04.599Z,13.55
2022-10-30T19:26:00.658Z,12.90
2022-10-30T19:31:00.899Z,12.97
2022-10-30T19:35:58.122Z,13.00
2022-10-30T19:40:56.469Z,15.77
2022-10-30T19:45:55.410Z,15.33
2022-10-30T19:50:52.913Z,13.73
2022-10-30T19:55:48.989Z,14.95
2022-10-30T20:00:46.646Z,13.90
2022-10-30T20:05:45.855Z,13.90
2022-10-30T20:10:44.199Z,12.37
2022-10-30T20:15:38.595Z,13.07
2022-10-30T20:20:35.730Z,13.30
2022-10-30T20:25:30.043Z,13.00
2022-10-30T20:30:26.791Z,12.97
2022-10-30T20:35:21.883Z,13.47
2022-10-30T20:40:18.378Z,12.97
2022-10-30T20:45:19.532Z,12.27
2022-10-30T20:50:18.714Z,12.60
2022-10-30T20:55:13.949Z,12.03
2022-10-30T21:00:12.703Z,14.37
2022-10-30T21:05:12.049Z,11.97
2022-10-30T21:10:25.390Z,11.93
2022-10-30T21:15:21.763Z,10.83
2022-10-30T21:20:15.039Z,11.33
2022-10-30T21:25:08.945Z,10.13
2022-10-30T21:30:04.265Z,11.80
2022-10-30T21:34:57.586Z,11.40
2022-10-30T21:39:50.900Z,10.83
2022-10-30T21:44:44.261Z,10.87
2022-10-30T21:49:38.902Z,10.87
2022-10-30T21:54:32.177Z,10.93
2022-10-30T21:59:25.481Z,11.63
2022-10-30T22:04:19.654Z,10.90
2022-10-30T22:09:17.831Z,10.87
2022-10-30T22:14:12.206Z,13.43
2022-10-30T22:19:06.860Z,11.83
2022-10-30T22:24:01.429Z,15.07
2022-10-30T22:28:58.101Z,15.20
2022-10-30T22:33:51.728Z,15.57
2022-10-30T22:38:45.728Z,17.00
2022-10-30T22:43:39.228Z,12.40
2022-10-30T22:48:34.195Z,9.87
2022-10-30T22:53:28.061Z,9.70
2022-10-30T22:58:21.762Z,10.40
2022-10-30T23:03:15.228Z,10.13
2022-10-30T23:08:10.051Z,10.03
2022-10-30T23:13:03.302Z,10.10
2022-10-30T23:17:56.698Z,10.37
2022-10-30T23:22:50.067Z,11.07
2022-10-30T23:27:44.645Z,10.80
2022-10-30T23:32:37.891Z,12.40
2022-10-30T23:37:31.143Z,10.80
2022-10-30T23:42:24.358Z,10.70
2022-10-30T23:47:18.983Z,11.60
2022-10-30T23:52:12.275Z,10.33
2022-10-30T23:57:05.810Z,11.00
